Time;durP1;ratioP1;P1;durP2;ratioP2;P2;SDS_P1;SDS_P2;PMS_P1;PMS_P2;Temp;Humidity;BMP_temperature;BMP_pressure;BME280_temperature;BME280_humidity;BME280_pressure;Samples;Min_cycle;Max_cycle;Signal;HPM_P1;HPM_P2
2022/10/19 00:01:20;;;;;;;35.90;23.30;;;18.50;99.90;;;;;;5055157;28;20094;-74
2022/10/19 00:03:53;;;;;;;37.15;24.35;;;18.50;99.90;;;;;;5036660;28;20072;-74
2022/10/19 00:06:26;;;;;;;31.95;21.80;;;18.50;99.90;;;;;;5078245;28;20045;-71
2022/10/19 00:09:04;;;;;;;33.33;20.85;;;18.50;99.90;;;;;;5050469;28;20040;-69
2022/10/19 00:11:33;;;;;;;31.45;20.35;;;18.60;99.90;;;;;;5082071;28;20044;-69
2022/10/19 00:14:02;;;;;;;35.88;21.63;;;18.60;99.90;;;;;;5084844;28;20063;-71
2022/10/19 00:16:35;;;;;;;32.90;21.77;;;18.60;99.90;;;;;;5060942;28;20079;-70
2022/10/19 00:19:06;;;;;;;36.97;20.75;;;18.60;99.90;;;;;;5048441;28;20745;-69
2022/10/19 00:21:38;;;;;;;31.60;20.55;;;18.50;99.90;;;;;;5078543;28;20135;-69
2022/10/19 00:24:07;;;;;;;33.55;20.98;;;18.60;99.90;;;;;;5064489;28;20055;-70
2022/10/19 00:26:35;;;;;;;33.67;21.60;;;18.60;99.90;;;;;;5058218;28;20106;-70
2022/10/19 00:29:03;;;;;;;28.83;20.02;;;18.60;99.90;;;;;;5066445;28;20036;-70
2022/10/19 00:31:32;;;;;;;34.38;21.88;;;18.60;99.90;;;;;;5081091;28;20064;-69
2022/10/19 00:34:00;;;;;;;33.20;21.55;;;18.60;99.90;;;;;;5066901;28;20106;-69
2022/10/19 00:36:34;;;;;;;32.08;21.35;;;18.60;99.90;;;;;;5078655;28;20513;-74
2022/10/19 00:39:04;;;;;;;41.95;21.52;;;18.60;99.90;;;;;;5064422;28;20056;-70
2022/10/19 00:41:34;;;;;;;34.22;21.33;;;18.60;99.90;;;;;;5074569;28;20045;-69
2022/10/19 00:44:10;;;;;;;38.90;22.52;;;18.50;99.90;;;;;;5066383;28;20055;-73
2022/10/19 00:46:40;;;;;;;35.20;20.52;;;18.50;99.90;;;;;;5073869;28;20044;-74
2022/10/19 00:49:22;;;;;;;34.05;21.80;;;18.60;99.90;;;;;;5068479;28;20052;-71
2022/10/19 00:52:00;;;;;;;32.40;21.63;;;18.50;99.90;;;;;;5080570;28;20044;-71
2022/10/19 00:54:29;;;;;;;37.10;21.92;;;18.60;99.90;;;;;;5086184;28;20054;-71
2022/10/19 00:56:58;;;;;;;31.60;21.80;;;18.50;99.90;;;;;;5042704;28;20132;-70
2022/10/19 00:59:30;;;;;;;38.00;23.33;;;18.50;99.90;;;;;;5050949;28;20629;-73
2022/10/19 01:02:00;;;;;;;37.38;22.42;;;18.50;99.90;;;;;;5085530;28;20048;-72
2022/10/19 01:04:29;;;;;;;33.28;20.42;;;18.50;99.90;;;;;;5070690;28;20044;-71
2022/10/19 01:06:58;;;;;;;35.85;20.33;;;18.50;99.90;;;;;;5094340;28;20423;-71
2022/10/19 01:09:26;;;;;;;34.20;19.95;;;18.50;99.90;;;;;;5069560;28;20086;-72
2022/10/19 01:12:03;;;;;;;36.45;21.90;;;18.50;99.90;;;;;;5085303;28;20032;-70
2022/10/19 01:15:06;;;;;;;31.40;20.10;;;18.50;99.90;;;;;;5086257;28;20055;-70
2022/10/19 01:17:54;;;;;;;37.42;21.80;;;18.50;99.90;;;;;;5079302;28;20220;-70
2022/10/19 01:20:33;;;;;;;38.63;20.83;;;18.50;99.90;;;;;;5079128;28;20062;-69
2022/10/19 01:23:43;;;;;;;33.05;20.02;;;18.50;99.90;;;;;;5086379;28;20510;-70
2022/10/19 01:26:32;;;;;;;26.88;18.30;;;18.50;99.90;;;;;;5053335;28;20094;-73
2022/10/19 01:29:17;;;;;;;32.35;20.63;;;18.50;99.90;;;;;;5086221;28;20047;-70
2022/10/19 01:32:03;;;;;;;29.05;19.52;;;18.60;99.90;;;;;;5086192;28;20056;-73
2022/10/19 01:34:38;;;;;;;32.47;22.30;;;18.50;99.90;;;;;;5093016;28;20081;-70
2022/10/19 01:37:40;;;;;;;32.47;20.95;;;18.60;99.90;;;;;;5094205;28;20089;-74
2022/10/19 01:40:14;;;;;;;31.38;20.98;;;18.60;99.90;;;;;;5081780;28;20052;-70
2022/10/19 01:42:52;;;;;;;33.78;20.10;;;18.60;99.90;;;;;;5053427;28;20154;-70
2022/10/19 01:45:49;;;;;;;34.97;21.77;;;18.60;99.90;;;;;;5087053;28;20225;-70
2022/10/19 01:48:22;;;;;;;30.77;19.00;;;18.60;99.90;;;;;;5070434;28;20052;-70
2022/10/19 01:50:56;;;;;;;31.10;21.02;;;18.60;99.90;;;;;;5069498;28;20128;-72
2022/10/19 01:53:27;;;;;;;33.15;21.05;;;18.50;99.90;;;;;;5080690;28;20075;-72
2022/10/19 01:55:57;;;;;;;25.90;19.15;;;18.60;99.90;;;;;;5062950;28;20665;-69
2022/10/19 01:58:29;;;;;;;28.25;17.98;;;18.60;99.90;;;;;;5079241;28;20036;-70
2022/10/19 02:01:01;;;;;;;33.20;20.40;;;18.60;99.90;;;;;;5078176;28;20040;-70
2022/10/19 02:03:29;;;;;;;28.75;20.05;;;18.60;99.90;;;;;;5058944;28;20087;-73
2022/10/19 02:05:58;;;;;;;30.80;20.02;;;18.60;99.90;;;;;;5056179;28;20040;-72
2022/10/19 02:08:31;;;;;;;30.67;18.10;;;18.60;99.90;;;;;;5065442;28;20202;-70
2022/10/19 02:11:00;;;;;;;28.38;19.02;;;18.60;99.90;;;;;;5067449;28;20134;-70
2022/10/19 02:13:29;;;;;;;29.73;17.90;;;18.60;99.90;;;;;;5066708;28;20044;-73
2022/10/19 02:16:00;;;;;;;30.65;20.10;;;18.60;99.90;;;;;;5049287;28;20052;-70
2022/10/19 02:18:35;;;;;;;28.73;18.88;;;18.60;99.90;;;;;;5066560;28;20052;-70
2022/10/19 02:21:05;;;;;;;32.03;18.00;;;18.60;99.90;;;;;;5050264;28;20494;-71
2022/10/19 02:23:32;;;;;;;27.70;17.73;;;18.60;99.90;;;;;;5050218;28;20064;-72
2022/10/19 02:26:00;;;;;;;28.85;19.17;;;18.60;99.90;;;;;;5066509;28;20053;-70
2022/10/19 02:28:29;;;;;;;30.75;18.02;;;18.60;99.90;;;;;;5067837;28;20434;-70
2022/10/19 02:30:58;;;;;;;32.08;20.13;;;18.60;99.90;;;;;;5082617;28;20436;-70
2022/10/19 02:33:28;;;;;;;34.63;18.55;;;18.60;99.90;;;;;;5069324;28;20082;-74
2022/10/19 02:35:57;;;;;;;33.10;19.10;;;18.60;99.90;;;;;;5085769;28;20134;-70
2022/10/19 02:38:25;;;;;;;28.02;18.38;;;18.60;99.90;;;;;;5069473;28;20142;-70
2022/10/19 02:41:17;;;;;;;33.70;18.55;;;18.60;99.90;;;;;;5087148;28;20075;-77
2022/10/19 02:43:48;;;;;;;27.30;17.45;;;18.60;99.90;;;;;;5085950;28;20197;-73
2022/10/19 02:46:37;;;;;;;35.50;19.65;;;18.50;99.90;;;;;;5053024;28;20076;-70
2022/10/19 02:49:06;;;;;;;30.90;18.92;;;18.60;99.90;;;;;;5088003;28;20055;-76
2022/10/19 02:52:14;;;;;;;31.75;19.17;;;18.50;99.90;;;;;;5085669;28;20153;-72
2022/10/19 02:54:43;;;;;;;29.05;18.40;;;18.50;99.90;;;;;;4972072;28;20050;-72
2022/10/19 02:57:22;;;;;;;32.88;18.90;;;18.50;99.90;;;;;;5004873;28;20773;-69
2022/10/19 02:59:51;;;;;;;34.03;22.15;;;18.50;99.90;;;;;;5027596;28;20409;-73
2022/10/19 03:02:20;;;;;;;32.72;19.10;;;18.50;99.90;;;;;;5067684;28;20060;-70
2022/10/19 03:04:47;;;;;;;28.15;16.90;;;18.40;99.90;;;;;;5069340;28;20039;-74
2022/10/19 03:07:17;;;;;;;28.92;19.35;;;18.40;99.90;;;;;;5086001;28;20063;-69
2022/10/19 03:09:44;;;;;;;31.55;18.60;;;18.40;99.90;;;;;;5086319;28;20040;-71
2022/10/19 03:12:13;;;;;;;37.42;19.58;;;18.40;99.90;;;;;;5069464;28;20627;-70
2022/10/19 03:14:41;;;;;;;29.40;18.80;;;18.40;99.90;;;;;;5052136;28;20058;-77
2022/10/19 03:17:09;;;;;;;42.63;20.02;;;18.30;99.90;;;;;;5052485;28;20137;-77
2022/10/19 03:19:38;;;;;;;31.70;17.67;;;18.40;99.90;;;;;;5085905;28;20067;-69
2022/10/19 03:22:06;;;;;;;30.08;18.08;;;18.30;99.90;;;;;;5085134;28;20146;-72
2022/10/19 03:24:35;;;;;;;31.42;19.55;;;18.30;99.90;;;;;;5067892;28;20056;-73
2022/10/19 03:27:02;;;;;;;29.48;17.02;;;18.30;99.90;;;;;;5085823;28;20044;-72
2022/10/19 03:29:30;;;;;;;27.55;17.58;;;18.30;99.90;;;;;;5085527;28;20113;-75
2022/10/19 03:31:58;;;;;;;37.03;20.75;;;18.20;99.90;;;;;;5068701;28;20117;-72
2022/10/19 03:34:26;;;;;;;28.50;17.95;;;18.20;99.90;;;;;;5068452;28;20195;-69
2022/10/19 03:36:55;;;;;;;29.98;18.42;;;18.20;99.90;;;;;;5085693;28;20048;-72
2022/10/19 03:39:23;;;;;;;33.78;19.10;;;18.20;99.90;;;;;;5068363;28;20071;-71
2022/10/19 03:41:51;;;;;;;28.23;17.60;;;18.20;99.90;;;;;;5069163;28;20170;-71
2022/10/19 03:44:19;;;;;;;24.73;16.33;;;18.20;99.90;;;;;;5085554;28;20079;-72
2022/10/19 03:46:46;;;;;;;27.75;18.45;;;18.20;99.90;;;;;;5085735;28;20048;-71
2022/10/19 03:49:14;;;;;;;27.48;17.08;;;18.20;99.90;;;;;;5085415;28;20056;-76
2022/10/19 03:51:42;;;;;;;32.33;19.65;;;18.20;99.90;;;;;;5085326;28;20101;-70
2022/10/19 03:54:15;;;;;;;28.40;17.67;;;18.20;99.90;;;;;;5068993;28;20039;-70
2022/10/19 03:56:43;;;;;;;30.08;18.73;;;18.10;99.90;;;;;;5068961;28;20040;-70
2022/10/19 03:59:13;;;;;;;25.80;16.35;;;18.10;99.90;;;;;;5085195;28;20074;-70
2022/10/19 04:01:44;;;;;;;34.13;19.85;;;18.10;99.90;;;;;;5084509;28;20044;-70
2022/10/19 04:04:16;;;;;;;33.33;20.38;;;18.10;99.90;;;;;;5085012;28;20123;-70
2022/10/19 04:06:48;;;;;;;28.98;18.27;;;18.10;99.90;;;;;;5085470;28;20051;-69
2022/10/19 04:09:19;;;;;;;27.00;18.20;;;18.10;99.90;;;;;;5085624;28;20488;-72
2022/10/19 04:11:48;;;;;;;29.38;17.48;;;18.10;99.90;;;;;;5084621;28;20062;-70
2022/10/19 04:14:17;;;;;;;28.60;19.10;;;18.10;99.90;;;;;;5050459;28;20068;-70
2022/10/19 04:16:45;;;;;;;28.42;18.00;;;18.10;99.90;;;;;;5076044;28;20515;-72
2022/10/19 04:19:14;;;;;;;24.50;16.88;;;18.10;99.90;;;;;;5047910;28;20091;-70
2022/10/19 04:21:43;;;;;;;27.52;18.25;;;18.00;99.90;;;;;;5030294;28;20590;-69
2022/10/19 04:24:13;;;;;;;27.38;17.17;;;18.00;99.90;;;;;;5064321;28;20048;-70
2022/10/19 04:26:47;;;;;;;34.10;18.92;;;18.00;99.90;;;;;;5046669;28;20807;-69
2022/10/19 04:29:17;;;;;;;29.77;17.52;;;18.00;99.90;;;;;;5064280;28;20048;-76
2022/10/19 04:31:48;;;;;;;28.80;18.33;;;18.00;99.90;;;;;;5064545;28;20071;-70
2022/10/19 04:34:16;;;;;;;26.58;17.95;;;18.00;99.90;;;;;;5064405;28;20048;-71
2022/10/19 04:36:45;;;;;;;30.33;18.15;;;18.00;99.90;;;;;;5048287;28;20099;-71
2022/10/19 04:39:13;;;;;;;24.63;18.15;;;18.00;99.90;;;;;;5048343;28;20057;-74
2022/10/19 04:41:41;;;;;;;29.52;18.95;;;17.90;99.90;;;;;;5047227;28;20138;-73
2022/10/19 04:44:09;;;;;;;25.95;16.90;;;17.90;99.90;;;;;;5063869;28;20114;-71
2022/10/19 04:46:37;;;;;;;30.17;17.67;;;17.90;99.90;;;;;;5064147;28;20475;-69
2022/10/19 04:49:05;;;;;;;26.77;17.90;;;17.90;99.90;;;;;;5047374;28;20059;-70
2022/10/19 04:51:33;;;;;;;27.02;18.38;;;17.90;99.90;;;;;;5064230;28;20048;-71
2022/10/19 04:54:02;;;;;;;28.38;18.40;;;17.90;99.90;;;;;;5047702;28;20053;-77
2022/10/19 04:56:31;;;;;;;28.40;18.30;;;17.90;99.90;;;;;;5064258;28;20143;-71
2022/10/19 04:58:59;;;;;;;26.85;18.42;;;17.90;99.90;;;;;;5064680;28;20048;-70
2022/10/19 05:01:29;;;;;;;33.05;20.25;;;17.90;99.90;;;;;;5064231;28;20144;-69
2022/10/19 05:04:02;;;;;;;33.45;20.88;;;17.90;99.90;;;;;;5064009;28;20459;-70
2022/10/19 05:06:30;;;;;;;28.40;19.05;;;17.90;99.90;;;;;;5082589;28;20059;-71
2022/10/19 05:08:59;;;;;;;32.10;19.80;;;17.80;99.90;;;;;;5067455;28;20059;-70
2022/10/19 05:11:28;;;;;;;35.55;19.70;;;17.80;99.90;;;;;;5083544;28;20044;-70
2022/10/19 05:13:56;;;;;;;27.35;18.60;;;17.80;99.90;;;;;;5084039;28;20584;-72
2022/10/19 05:16:25;;;;;;;28.70;17.00;;;17.80;99.90;;;;;;5083449;28;20509;-69
2022/10/19 05:18:57;;;;;;;30.75;18.90;;;17.80;99.90;;;;;;5080527;28;20048;-73
2022/10/19 05:21:27;;;;;;;28.80;18.13;;;17.80;99.90;;;;;;5042738;28;20045;-73
2022/10/19 05:23:56;;;;;;;28.98;17.90;;;17.90;99.90;;;;;;5047551;28;20170;-71
2022/10/19 05:26:26;;;;;;;25.42;16.48;;;17.90;99.90;;;;;;5030458;28;20049;-70
2022/10/19 05:29:01;;;;;;;31.58;19.98;;;17.90;99.90;;;;;;5047876;28;20574;-69
2022/10/19 05:31:31;;;;;;;28.52;17.38;;;18.00;99.90;;;;;;5064644;28;20063;-71
2022/10/19 05:34:00;;;;;;;27.63;18.38;;;18.00;99.90;;;;;;5065007;28;20796;-70
2022/10/19 05:36:33;;;;;;;30.75;18.83;;;18.10;99.90;;;;;;5066997;28;20054;-69
2022/10/19 05:39:21;;;;;;;32.00;20.20;;;18.20;99.90;;;;;;5050097;28;20109;-76
2022/10/19 05:41:49;;;;;;;32.83;19.42;;;18.30;99.90;;;;;;5066625;28;20137;-74
2022/10/19 05:44:19;;;;;;;29.73;17.90;;;18.50;99.90;;;;;;5066935;28;20155;-73
2022/10/19 05:46:48;;;;;;;29.52;17.58;;;18.60;99.90;;;;;;5050446;28;20109;-77
2022/10/19 05:49:18;;;;;;;30.73;18.15;;;18.70;99.90;;;;;;5050059;28;20107;-69
2022/10/19 05:51:46;;;;;;;29.33;18.02;;;18.90;99.90;;;;;;5082216;28;20048;-70
2022/10/19 05:54:14;;;;;;;29.27;18.00;;;19.00;99.90;;;;;;5055777;28;20049;-71
2022/10/19 05:56:42;;;;;;;28.52;17.80;;;19.10;99.90;;;;;;5050079;28;20723;-70
2022/10/19 05:59:14;;;;;;;27.40;17.75;;;19.20;99.90;;;;;;5069778;28;20630;-70
2022/10/19 06:01:42;;;;;;;23.67;17.70;;;19.40;99.90;;;;;;5069624;28;20045;-69
2022/10/19 06:04:12;;;;;;;30.25;18.13;;;19.60;99.90;;;;;;5069962;28;20796;-80
2022/10/19 06:06:42;;;;;;;22.80;16.85;;;19.80;99.90;;;;;;5070102;28;20063;-72
2022/10/19 06:09:10;;;;;;;25.55;16.48;;;20.10;99.90;;;;;;5088469;28;20048;-69
2022/10/19 06:11:40;;;;;;;25.38;16.33;;;20.30;99.90;;;;;;5084265;28;20060;-71
2022/10/19 06:14:12;;;;;;;30.13;17.17;;;20.60;99.90;;;;;;5081217;28;20080;-74
2022/10/19 06:16:45;;;;;;;26.40;15.57;;;20.90;99.90;;;;;;5075505;28;20469;-71
2022/10/19 06:19:13;;;;;;;29.23;17.60;;;21.30;99.90;;;;;;5064944;28;20091;-77
2022/10/19 06:21:42;;;;;;;28.17;15.00;;;21.60;99.90;;;;;;5077145;28;20127;-70
2022/10/19 06:24:12;;;;;;;26.23;15.52;;;21.90;99.90;;;;;;5063272;28;20485;-71
2022/10/19 06:26:39;;;;;;;22.73;15.05;;;22.30;99.90;;;;;;5052494;28;20072;-72
2022/10/19 06:29:09;;;;;;;19.50;14.38;;;22.60;99.90;;;;;;5071313;28;20039;-71
2022/10/19 06:31:37;;;;;;;20.20;12.30;;;23.00;99.90;;;;;;5091832;28;20063;-70
2022/10/19 06:34:06;;;;;;;21.05;13.50;;;23.30;99.90;;;;;;5093554;28;20055;-73
2022/10/19 06:36:34;;;;;;;24.23;14.70;;;23.40;99.90;;;;;;5075325;28;20044;-70
2022/10/19 06:39:03;;;;;;;24.35;13.95;;;23.50;99.90;;;;;;5098594;28;20044;-71
2022/10/19 06:41:33;;;;;;;32.85;14.27;;;23.50;99.90;;;;;;5076580;28;20128;-77
2022/10/19 06:44:17;;;;;;;29.17;15.38;;;23.50;99.90;;;;;;5074834;28;20823;-72
2022/10/19 06:46:44;;;;;;;20.15;13.63;;;23.40;99.90;;;;;;5073191;28;20064;-72
2022/10/19 06:49:13;;;;;;;24.60;13.95;;;23.40;99.90;;;;;;5094450;28;20151;-73
2022/10/19 06:51:41;;;;;;;23.67;14.38;;;23.40;99.90;;;;;;5077190;28;20120;-70
2022/10/19 06:54:08;;;;;;;22.77;13.70;;;23.40;99.90;;;;;;5073269;28;20559;-74
2022/10/19 06:56:36;;;;;;;21.98;13.13;;;23.50;99.90;;;;;;5084535;28;20119;-72
2022/10/19 06:59:04;;;;;;;23.35;14.27;;;23.60;99.90;;;;;;5067130;28;20047;-73
2022/10/19 07:01:32;;;;;;;22.42;14.75;;;23.70;99.90;;;;;;5068074;28;20082;-74
2022/10/19 07:04:00;;;;;;;23.38;13.65;;;23.70;99.90;;;;;;5084937;28;20055;-72
2022/10/19 07:06:27;;;;;;;22.30;14.73;;;23.80;99.90;;;;;;5068786;28;20143;-76
2022/10/19 07:08:55;;;;;;;25.30;13.00;;;23.80;99.90;;;;;;5096040;28;20078;-77
2022/10/19 07:11:23;;;;;;;20.73;13.60;;;23.90;99.90;;;;;;5097258;28;20402;-70
2022/10/19 07:13:52;;;;;;;21.85;13.38;;;24.00;99.90;;;;;;5086148;28;20048;-72
2022/10/19 07:16:21;;;;;;;24.13;15.10;;;23.90;99.90;;;;;;5086683;28;20048;-78
2022/10/19 07:18:50;;;;;;;23.23;13.50;;;23.70;99.90;;;;;;5051633;28;20192;-78
2022/10/19 07:21:21;;;;;;;19.98;13.57;;;23.40;99.90;;;;;;5052499;28;20182;-77
2022/10/19 07:23:49;;;;;;;22.23;13.02;;;23.10;99.90;;;;;;5069529;28;20429;-78
2022/10/19 07:26:25;;;;;;;22.98;12.80;;;22.70;99.90;;;;;;5083646;28;20056;-79
2022/10/19 07:28:55;;;;;;;16.88;11.98;;;22.40;99.90;;;;;;5086977;28;20040;-78
2022/10/19 07:31:24;;;;;;;20.23;12.45;;;22.10;99.90;;;;;;5084600;28;20059;-77
2022/10/19 07:33:57;;;;;;;24.77;12.52;;;21.80;99.90;;;;;;5060695;28;20663;-77
2022/10/19 07:36:26;;;;;;;22.67;13.68;;;21.60;99.90;;;;;;5065627;28;20050;-77
2022/10/19 07:38:54;;;;;;;22.77;13.70;;;21.40;99.90;;;;;;5066461;28;20135;-77
2022/10/19 07:41:23;;;;;;;18.17;12.05;;;21.30;99.90;;;;;;5065461;28;20044;-80
2022/10/19 07:43:52;;;;;;;17.17;11.93;;;21.40;99.90;;;;;;5064656;28;20135;-80
2022/10/19 07:46:28;;;;;;;16.15;10.18;;;21.60;99.90;;;;;;5083109;28;20036;-78
2022/10/19 07:48:55;;;;;;;15.35;9.40;;;21.90;99.90;;;;;;5075780;28;20051;-78
2022/10/19 07:51:23;;;;;;;20.67;10.20;;;22.30;99.90;;;;;;5065245;28;20135;-79
2022/10/19 07:53:51;;;;;;;13.10;9.60;;;22.60;99.90;;;;;;5084446;28;20051;-76
2022/10/19 07:56:21;;;;;;;16.13;10.27;;;23.00;99.90;;;;;;5064877;28;20052;-78
2022/10/19 07:58:50;;;;;;;13.18;10.15;;;23.10;99.90;;;;;;5065971;28;20048;-77
2022/10/19 08:01:23;;;;;;;16.67;9.02;;;23.20;99.90;;;;;;5077782;28;20051;-78
2022/10/19 08:03:52;;;;;;;14.30;10.00;;;23.20;99.90;;;;;;5067077;28;20063;-78
2022/10/19 08:06:40;;;;;;;14.05;8.25;;;23.30;99.90;;;;;;5084546;28;20032;-77
2022/10/19 08:09:08;;;;;;;17.42;10.85;;;23.20;99.90;;;;;;5079806;28;20059;-78
2022/10/19 08:11:37;;;;;;;14.18;9.20;;;23.30;99.90;;;;;;5083759;28;20059;-80
2022/10/19 08:14:05;;;;;;;13.27;9.23;;;23.50;99.90;;;;;;5082493;28;20082;-77
2022/10/19 08:16:40;;;;;;;11.07;8.93;;;23.60;99.90;;;;;;5080740;28;20109;-80
2022/10/19 08:19:11;;;;;;;16.25;10.20;;;23.50;99.90;;;;;;5064392;28;20049;-78
2022/10/19 08:21:40;;;;;;;14.63;10.25;;;23.30;99.90;;;;;;5082025;28;20052;-77
2022/10/19 08:24:10;;;;;;;14.43;8.77;;;23.30;99.90;;;;;;5064737;28;20251;-78
2022/10/19 08:26:38;;;;;;;12.80;9.63;;;23.40;99.90;;;;;;5055190;28;20051;-78
2022/10/19 08:29:28;;;;;;;14.48;10.43;;;23.60;99.90;;;;;;5057607;28;20063;-77
2022/10/19 08:31:56;;;;;;;11.38;8.15;;;23.90;99.90;;;;;;5053539;28;20064;-78
2022/10/19 08:34:24;;;;;;;9.98;7.78;;;24.10;99.90;;;;;;5074879;28;20044;-76
2022/10/19 08:36:52;;;;;;;13.40;8.60;;;24.00;99.90;;;;;;5070308;28;20113;-78
2022/10/19 08:39:19;;;;;;;12.10;8.50;;;23.90;99.90;;;;;;5070612;28;20097;-77
2022/10/19 08:42:05;;;;;;;14.02;9.40;;;23.90;99.90;;;;;;5065189;28;20171;-76
2022/10/19 08:45:15;;;;;;;16.65;9.77;;;23.80;99.90;;;;;;5077497;28;20064;-81
2022/10/19 08:48:02;;;;;;;13.60;10.00;;;23.60;99.90;;;;;;5087559;28;20047;-78
2022/10/19 08:50:39;;;;;;;17.15;10.25;;;23.80;99.90;;;;;;5067112;28;20384;-77
2022/10/19 08:53:13;;;;;;;15.65;8.95;;;23.90;99.90;;;;;;5034131;28;20490;-77
2022/10/19 08:56:09;;;;;;;12.73;8.63;;;24.10;99.90;;;;;;5066666;28;20493;-78
2022/10/19 08:58:57;;;;;;;11.48;8.48;;;24.10;99.90;;;;;;5081762;28;20056;-77
2022/10/19 09:01:33;;;;;;;12.40;8.85;;;23.90;99.90;;;;;;5068495;28;20585;-78
2022/10/19 09:04:03;;;;;;;18.00;9.55;;;23.70;99.90;;;;;;5053020;28;20052;-77
2022/10/19 09:06:42;;;;;;;13.90;8.55;;;23.90;99.90;;;;;;5085521;28;20044;-77
2022/10/19 09:09:12;;;;;;;15.98;9.07;;;24.10;99.90;;;;;;5072532;28;20444;-78
2022/10/19 09:11:54;;;;;;;13.82;8.73;;;23.90;99.90;;;;;;5082247;28;20055;-80
2022/10/19 09:14:31;;;;;;;12.98;9.38;;;23.90;99.90;;;;;;5103901;28;20040;-76
2022/10/19 09:17:05;;;;;;;10.95;7.97;;;24.00;99.90;;;;;;5085442;28;20497;-79
2022/10/19 09:19:32;;;;;;;15.45;9.55;;;23.90;99.90;;;;;;5089490;28;20049;-78
2022/10/19 09:22:11;;;;;;;16.17;8.93;;;23.80;99.90;;;;;;5067528;28;20135;-80
2022/10/19 09:24:56;;;;;;;14.70;8.70;;;23.80;99.90;;;;;;5090574;28;20055;-77
2022/10/19 09:27:37;;;;;;;14.98;9.88;;;23.80;99.90;;;;;;5063878;28;20051;-77
2022/10/19 09:30:18;;;;;;;13.35;7.88;;;24.00;99.90;;;;;;5054645;28;20139;-78
2022/10/19 09:32:48;;;;;;;16.33;9.02;;;24.10;99.90;;;;;;5088894;28;20052;-77
2022/10/19 09:35:42;;;;;;;13.60;9.15;;;24.00;99.90;;;;;;5073851;28;20504;-77
2022/10/19 09:38:15;;;;;;;15.93;8.88;;;23.70;99.90;;;;;;5074004;28;20452;-77
2022/10/19 09:40:43;;;;;;;14.80;8.30;;;23.90;99.90;;;;;;5045874;28;20048;-79
2022/10/19 09:43:20;;;;;;;13.55;8.77;;;23.90;99.90;;;;;;5052854;28;20131;-78
2022/10/19 09:45:52;;;;;;;14.55;10.02;;;23.70;99.90;;;;;;5069232;28;20536;-77
2022/10/19 09:48:27;;;;;;;13.18;8.80;;;23.70;99.90;;;;;;5068454;28;20041;-77
2022/10/19 09:50:58;;;;;;;15.57;8.32;;;23.90;99.90;;;;;;5068424;28;20106;-79
2022/10/19 09:53:27;;;;;;;14.80;8.88;;;23.90;99.90;;;;;;5051594;28;20067;-76
2022/10/19 09:55:57;;;;;;;14.50;9.90;;;23.80;99.90;;;;;;5051834;28;20056;-78
2022/10/19 09:58:28;;;;;;;13.23;9.07;;;23.70;99.90;;;;;;5051511;28;20065;-78
2022/10/19 10:00:57;;;;;;;16.67;11.35;;;23.50;99.90;;;;;;5052470;28;20056;-78
2022/10/19 10:03:25;;;;;;;17.20;11.43;;;23.30;99.90;;;;;;5054116;28;20406;-76
2022/10/19 10:05:55;;;;;;;16.98;10.25;;;23.20;99.90;;;;;;5053905;28;20166;-75
2022/10/19 10:08:26;;;;;;;15.55;10.07;;;23.20;99.90;;;;;;5057717;28;20472;-74
2022/10/19 10:11:09;;;;;;;16.90;11.32;;;23.30;99.90;;;;;;5056871;28;20040;-74
2022/10/19 10:13:40;;;;;;;15.95;10.77;;;23.60;99.90;;;;;;5072737;28;20054;-73
2022/10/19 10:16:12;;;;;;;18.33;11.07;;;23.90;99.90;;;;;;5073140;28;20048;-76
2022/10/19 10:19:07;;;;;;;20.42;12.98;;;24.00;99.90;;;;;;5072512;28;20048;-77
2022/10/19 10:21:56;;;;;;;21.85;11.68;;;23.90;99.90;;;;;;5056348;28;20134;-74
2022/10/19 10:24:29;;;;;;;16.20;10.90;;;24.10;99.90;;;;;;5090071;28;20054;-78
2022/10/19 10:26:59;;;;;;;16.33;11.30;;;24.10;99.90;;;;;;5073319;28;20460;-76
2022/10/19 10:29:37;;;;;;;15.10;10.18;;;23.90;99.90;;;;;;5089581;28;20112;-77
2022/10/19 10:32:12;;;;;;;21.73;11.25;;;24.20;99.90;;;;;;5072644;28;20060;-77
2022/10/19 10:34:43;;;;;;;18.13;10.48;;;24.30;99.90;;;;;;5073084;28;20062;-76
2022/10/19 10:37:33;;;;;;;16.95;11.27;;;24.20;99.90;;;;;;5056779;28;20138;-75
2022/10/19 10:40:02;;;;;;;17.90;11.88;;;24.10;99.90;;;;;;5072737;28;20055;-76
2022/10/19 10:42:50;;;;;;;20.60;11.07;;;24.00;99.90;;;;;;5072722;28;20113;-77
2022/10/19 10:45:22;;;;;;;21.92;10.85;;;23.90;99.90;;;;;;5062572;28;20055;-75
2022/10/19 10:47:51;;;;;;;19.02;11.43;;;23.70;99.90;;;;;;5076496;28;20055;-77
2022/10/19 10:50:24;;;;;;;16.15;11.93;;;23.80;99.90;;;;;;5067085;28;20055;-76
2022/10/19 10:53:00;;;;;;;16.10;10.82;;;24.00;99.90;;;;;;5069356;28;20055;-76
2022/10/19 10:55:30;;;;;;;21.35;12.80;;;24.10;99.90;;;;;;5070045;28;20561;-77
2022/10/19 10:58:18;;;;;;;22.05;12.80;;;24.10;99.90;;;;;;5073393;28;20040;-75
2022/10/19 11:00:48;;;;;;;21.48;13.38;;;24.20;99.90;;;;;;5077826;28;20498;-78
2022/10/19 11:03:31;;;;;;;19.60;11.85;;;24.30;99.90;;;;;;5085480;28;20101;-77
2022/10/19 11:06:01;;;;;;;17.92;11.75;;;24.40;99.90;;;;;;5080737;28;20522;-75
2022/10/19 11:08:50;;;;;;;18.05;10.70;;;24.40;99.90;;;;;;5050866;28;20048;-75
2022/10/19 11:11:29;;;;;;;18.90;12.77;;;24.10;99.90;;;;;;5052314;28;20510;-75
2022/10/19 11:14:10;;;;;;;16.90;10.63;;;23.90;99.90;;;;;;5051090;28;20514;-76
2022/10/19 11:16:41;;;;;;;18.65;11.98;;;23.80;99.90;;;;;;5066947;28;20051;-76
2022/10/19 11:19:21;;;;;;;22.60;11.38;;;23.90;99.90;;;;;;5066373;28;20041;-75
2022/10/19 11:21:56;;;;;;;23.85;10.75;;;23.80;99.90;;;;;;5050452;28;20098;-76
2022/10/19 11:24:45;;;;;;;18.13;13.13;;;23.80;99.90;;;;;;5068307;28;20056;-75
2022/10/19 11:27:23;;;;;;;22.38;12.70;;;23.70;99.90;;;;;;5035137;28;20425;-75
2022/10/19 11:29:59;;;;;;;17.88;10.43;;;23.60;99.90;;;;;;5035367;28;20053;-75
2022/10/19 11:32:34;;;;;;;20.23;10.82;;;23.70;99.90;;;;;;5067362;28;20106;-76
2022/10/19 11:35:41;;;;;;;23.27;11.55;;;23.80;99.90;;;;;;5051459;28;20057;-75
2022/10/19 11:38:21;;;;;;;17.20;11.48;;;24.00;99.90;;;;;;5052373;28;20053;-76
2022/10/19 11:41:06;;;;;;;19.05;11.88;;;24.20;99.90;;;;;;5081848;28;20040;-78
2022/10/19 11:44:12;;;;;;;20.30;12.02;;;24.20;99.90;;;;;;5061395;28;20491;-74
2022/10/19 11:46:58;;;;;;;21.23;14.40;;;24.10;99.90;;;;;;5080638;28;20032;-75
2022/10/19 11:50:01;;;;;;;21.67;13.88;;;23.80;99.90;;;;;;5061154;28;20142;-75
2022/10/19 11:52:49;;;;;;;19.15;13.30;;;23.70;99.90;;;;;;5070957;28;20052;-75
2022/10/19 11:55:27;;;;;;;20.65;13.38;;;23.90;99.90;;;;;;5079699;28;20546;-74
2022/10/19 11:58:01;;;;;;;20.55;12.73;;;23.90;99.90;;;;;;5069053;28;20120;-75
2022/10/19 12:00:35;;;;;;;19.85;12.82;;;23.70;99.90;;;;;;5078956;28;20052;-76
2022/10/19 12:03:08;;;;;;;22.17;14.45;;;23.60;99.90;;;;;;5066281;28;20405;-75
2022/10/19 12:06:15;;;;;;;22.52;11.85;;;23.40;99.90;;;;;;5035880;28;20044;-76
2022/10/19 12:08:50;;;;;;;;;;;23.40;99.90;;;;;;5085257;28;20052;-75
2022/10/19 12:11:36;;;;;;;45.88;15.75;;;23.40;99.90;;;;;;5052973;28;19939;-75
2022/10/19 12:14:11;;;;;;;22.33;14.38;;;23.40;99.90;;;;;;5062593;28;20056;-75
2022/10/19 12:16:43;;;;;;;22.63;13.25;;;23.20;99.90;;;;;;5069113;28;20381;-75
2022/10/19 12:19:38;;;;;;;19.20;12.98;;;23.30;99.90;;;;;;5086799;28;20054;-75
2022/10/19 12:22:14;;;;;;;23.00;14.70;;;23.40;99.90;;;;;;5084916;28;20040;-75
2022/10/19 12:24:43;;;;;;;20.27;13.13;;;23.60;99.90;;;;;;5058984;28;20048;-73
2022/10/19 12:27:17;;;;;;;19.58;13.93;;;23.60;99.90;;;;;;5082614;28;20066;-75
2022/10/19 12:29:47;;;;;;;20.80;14.18;;;23.50;99.90;;;;;;5068164;28;20473;-75
2022/10/19 12:32:20;;;;;;;23.25;13.70;;;23.30;99.90;;;;;;5066643;28;20142;-74
2022/10/19 12:34:55;;;;;;;17.98;12.98;;;23.20;99.90;;;;;;5075497;28;20498;-75
2022/10/19 12:37:26;;;;;;;23.73;13.93;;;23.20;99.90;;;;;;5069484;28;20071;-74
2022/10/19 12:39:59;;;;;;;19.13;12.25;;;23.30;99.90;;;;;;5051159;28;20670;-74
2022/10/19 12:42:41;;;;;;;19.77;13.50;;;23.50;99.90;;;;;;5086353;28;20079;-74
2022/10/19 12:45:35;;;;;;;21.90;14.10;;;23.70;99.90;;;;;;5057467;28;20040;-74
2022/10/19 12:48:13;;;;;;;23.25;14.77;;;23.80;99.90;;;;;;5105838;28;20052;-75
2022/10/19 12:50:52;;;;;;;23.65;13.10;;;23.60;99.90;;;;;;5090213;28;20055;-74
2022/10/19 12:53:30;;;;;;;24.88;15.40;;;23.50;99.90;;;;;;5074636;28;20036;-74
2022/10/19 12:56:04;;;;;;;26.38;15.77;;;23.40;99.90;;;;;;5043560;28;20078;-73
2022/10/19 12:58:39;;;;;;;23.80;14.75;;;23.40;99.90;;;;;;5069923;28;20412;-74
2022/10/19 13:01:34;;;;;;;19.40;13.20;;;23.20;99.90;;;;;;5072577;28;20056;-74